Time;durP1;ratioP1;P1;durP2;ratioP2;P2;SDS_P1;SDS_P2;PMS_P1;PMS_P2;Temp;Humidity;BMP_temperature;BMP_pressure;BME280_temperature;BME280_humidity;BME280_pressure;Samples;Min_cycle;Max_cycle;Signal;HPM_P1;HPM_P2
2023/12/19 00:01:20;;;;;;;;;;;18.90;62.00;;;;;;5069671;28;1283;-69
2023/12/19 00:03:45;;;;;;;;;;;18.90;62.00;;;;;;5065746;28;1182;-69
2023/12/19 00:06:10;;;;;;;;;;;18.90;62.00;;;;;;5066383;28;1428;-68
2023/12/19 00:08:36;;;;;;;;;;;18.90;62.00;;;;;;5097224;28;1062;-68
2023/12/19 00:11:02;;;;;;;;;;;18.90;62.00;;;;;;5069148;28;1206;-69
2023/12/19 00:13:28;;;;;;;;;;;18.90;62.10;;;;;;5065897;28;1174;-68
2023/12/19 00:15:53;;;;;;;;;;;18.90;62.10;;;;;;5069197;28;801;-68
2023/12/19 00:18:18;;;;;;;;;;;18.90;62.10;;;;;;5069184;28;1906;-68
2023/12/19 00:20:44;;;;;;;;;;;18.90;62.10;;;;;;5065265;28;1224;-68
2023/12/19 00:23:09;;;;;;;;;;;18.90;62.10;;;;;;5067100;28;901;-69
2023/12/19 00:25:35;;;;;;;;;;;18.90;62.10;;;;;;5065872;28;1238;-68
2023/12/19 00:28:00;;;;;;;;;;;18.90;62.20;;;;;;5068597;28;828;-68
2023/12/19 00:30:26;;;;;;;;;;;18.90;62.20;;;;;;5091659;28;1271;-69
2023/12/19 00:32:52;;;;;;;;;;;18.90;62.20;;;;;;5091871;28;1068;-69
2023/12/19 00:35:17;;;;;;;;;;;18.90;62.20;;;;;;5050501;28;1283;-68
2023/12/19 00:37:43;;;;;;;;;;;18.90;62.20;;;;;;5062677;28;828;-69
2023/12/19 00:40:11;;;;;;;;;;;18.90;62.20;;;;;;5064901;28;1969;-68
2023/12/19 00:42:36;;;;;;;;;;;18.90;62.30;;;;;;5064085;28;1251;-69
2023/12/19 00:45:02;;;;;;;;;;;18.80;62.20;;;;;;5064554;28;1104;-69
2023/12/19 00:47:27;;;;;;;;;;;18.90;62.30;;;;;;5074774;28;902;-68
2023/12/19 00:49:53;;;;;;;;;;;18.80;62.20;;;;;;5066765;28;1280;-68
2023/12/19 00:52:18;;;;;;;;;;;18.80;62.20;;;;;;5064896;28;1087;-70
2023/12/19 00:54:44;;;;;;;;;;;18.80;62.30;;;;;;5066829;28;879;-69
2023/12/19 00:57:09;;;;;;;;;;;18.80;62.20;;;;;;5096055;28;1017;-69
2023/12/19 00:59:35;;;;;;;;;;;18.80;62.20;;;;;;5064057;28;1963;-69
2023/12/19 01:02:00;;;;;;;;;;;18.80;62.30;;;;;;5061095;28;1281;-68
2023/12/19 01:04:26;;;;;;;;;;;18.80;62.30;;;;;;5091635;28;933;-68
2023/12/19 01:06:51;;;;;;;;;;;18.80;62.30;;;;;;5064140;28;1018;-69
2023/12/19 01:09:17;;;;;;;;;;;18.80;62.30;;;;;;5072352;28;1289;-70
2023/12/19 01:11:42;;;;;;;;;;;18.80;62.40;;;;;;5066696;28;946;-68
2023/12/19 01:14:08;;;;;;;;;;;18.80;62.30;;;;;;5070135;28;990;-68
2023/12/19 01:16:33;;;;;;;;;;;18.80;62.40;;;;;;5089826;28;1312;-69
2023/12/19 01:19:00;;;;;;;;;;;18.80;62.30;;;;;;5070204;28;1977;-68
2023/12/19 01:21:26;;;;;;;;;;;18.80;62.40;;;;;;5067604;28;1241;-68
2023/12/19 01:23:51;;;;;;;;;;;18.80;62.40;;;;;;5048480;28;954;-69
2023/12/19 01:26:17;;;;;;;;;;;18.80;62.40;;;;;;5065089;28;872;-68
2023/12/19 01:28:42;;;;;;;;;;;18.80;62.40;;;;;;5062588;28;1160;-68
2023/12/19 01:31:08;;;;;;;;;;;18.80;62.40;;;;;;5067536;28;1307;-68
2023/12/19 01:33:33;;;;;;;;;;;18.80;62.40;;;;;;5066706;28;938;-70
2023/12/19 01:35:59;;;;;;;;;;;18.80;62.40;;;;;;5065230;28;1437;-68
2023/12/19 01:38:24;;;;;;;;;;;18.80;62.50;;;;;;5095242;28;1898;-68
2023/12/19 01:40:50;;;;;;;;;;;18.80;62.50;;;;;;5101502;28;1192;-68
2023/12/19 01:43:19;;;;;;;;;;;18.70;63.20;;;;;;5098971;28;1387;-69
2023/12/19 01:45:44;;;;;;;;;;;18.80;62.50;;;;;;5065569;28;1248;-69
2023/12/19 01:48:10;;;;;;;;;;;18.70;62.40;;;;;;5095086;28;884;-68
2023/12/19 01:50:35;;;;;;;;;;;18.70;62.50;;;;;;5067291;28;1359;-68
2023/12/19 01:53:00;;;;;;;;;;;18.70;62.50;;;;;;5070817;28;985;-70
2023/12/19 01:55:26;;;;;;;;;;;18.70;62.50;;;;;;5067510;28;935;-70
2023/12/19 01:57:53;;;;;;;;;;;18.70;62.50;;;;;;5062658;28;1092;-70
2023/12/19 02:00:19;;;;;;;;;;;18.70;62.50;;;;;;5069327;28;2048;-69
2023/12/19 02:02:45;;;;;;;;;;;18.70;62.50;;;;;;5066360;28;1093;-69
2023/12/19 02:05:10;;;;;;;;;;;18.70;62.50;;;;;;5088729;28;1353;-69
2023/12/19 02:07:35;;;;;;;;;;;18.70;62.50;;;;;;5080615;28;1234;-68
2023/12/19 02:10:01;;;;;;;;;;;18.70;62.50;;;;;;5061708;28;1367;-69
2023/12/19 02:12:26;;;;;;;;;;;18.70;62.50;;;;;;5065386;28;976;-70
2023/12/19 02:14:52;;;;;;;;;;;18.70;62.50;;;;;;5102839;28;1553;-70
2023/12/19 02:17:18;;;;;;;;;;;18.70;62.50;;;;;;5067660;28;1183;-68
2023/12/19 02:19:44;;;;;;;;;;;18.70;62.60;;;;;;5071192;28;1973;-68
2023/12/19 02:22:10;;;;;;;;;;;18.70;62.50;;;;;;5071867;28;866;-69
2023/12/19 02:24:35;;;;;;;;;;;18.70;62.60;;;;;;5069019;28;1421;-70
2023/12/19 02:27:00;;;;;;;;;;;18.70;62.60;;;;;;5060178;28;970;-68
2023/12/19 02:29:26;;;;;;;;;;;18.70;62.60;;;;;;5065822;28;1292;-68
2023/12/19 02:31:51;;;;;;;;;;;18.70;62.70;;;;;;5064902;28;896;-68
2023/12/19 02:34:17;;;;;;;;;;;18.70;62.60;;;;;;5061735;28;880;-68
2023/12/19 02:36:42;;;;;;;;;;;18.70;62.70;;;;;;5066375;28;839;-68
2023/12/19 02:39:09;;;;;;;;;;;18.70;62.70;;;;;;5064704;28;1906;-68
2023/12/19 02:41:34;;;;;;;;;;;18.70;62.70;;;;;;5100480;28;902;-68
2023/12/19 02:44:00;;;;;;;;;;;18.70;62.70;;;;;;5069209;28;959;-69
2023/12/19 02:46:25;;;;;;;;;;;18.70;62.70;;;;;;5069232;28;1057;-68
2023/12/19 02:48:51;;;;;;;;;;;18.70;62.70;;;;;;5065076;28;1329;-68
2023/12/19 02:51:17;;;;;;;;;;;18.70;62.70;;;;;;5063332;28;932;-68
2023/12/19 02:53:42;;;;;;;;;;;18.70;62.70;;;;;;5065524;28;1261;-68
2023/12/19 02:56:08;;;;;;;;;;;18.70;62.70;;;;;;5066493;28;823;-68
2023/12/19 02:58:33;;;;;;;;;;;18.70;62.80;;;;;;5070626;28;1905;-68
2023/12/19 03:00:59;;;;;;;;;;;18.70;62.70;;;;;;5066743;28;1309;-68
2023/12/19 03:03:24;;;;;;;;;;;18.70;62.70;;;;;;5065135;28;957;-68
2023/12/19 03:05:50;;;;;;;;;;;18.70;62.80;;;;;;5065437;28;1194;-68
2023/12/19 03:08:15;;;;;;;;;;;18.70;62.80;;;;;;5072182;28;859;-68
2023/12/19 03:10:41;;;;;;;;;;;18.70;62.80;;;;;;5064255;28;1276;-69
2023/12/19 03:13:06;;;;;;;;;;;18.70;62.80;;;;;;5064804;28;869;-68
2023/12/19 03:15:32;;;;;;;;;;;18.70;62.80;;;;;;5071273;28;1066;-68
2023/12/19 03:17:57;;;;;;;;;;;18.70;62.80;;;;;;5066776;28;1048;-68
2023/12/19 03:20:23;;;;;;;;;;;18.70;62.80;;;;;;5070774;28;1898;-68
2023/12/19 03:22:48;;;;;;;;;;;18.60;62.80;;;;;;5070395;28;864;-70
2023/12/19 03:25:14;;;;;;;;;;;18.60;62.80;;;;;;5060533;28;1450;-70
2023/12/19 03:27:40;;;;;;;;;;;18.60;62.80;;;;;;5061057;28;1267;-71
2023/12/19 03:30:05;;;;;;;;;;;18.60;62.80;;;;;;5087654;28;1449;-70
2023/12/19 03:32:31;;;;;;;;;;;18.60;62.80;;;;;;5056232;28;1555;-70
2023/12/19 03:34:56;;;;;;;;;;;18.60;62.80;;;;;;5054360;28;1443;-70
2023/12/19 03:37:22;;;;;;;;;;;18.60;62.80;;;;;;5058270;28;902;-71
2023/12/19 03:39:47;;;;;;;;;;;18.60;62.80;;;;;;5058379;28;1906;-70
2023/12/19 03:42:13;;;;;;;;;;;18.60;62.80;;;;;;5057936;28;1163;-69
2023/12/19 03:44:41;;;;;;;;;;;18.60;62.80;;;;;;5051813;28;1281;-70
2023/12/19 03:47:09;;;;;;;;;;;18.60;62.80;;;;;;5058179;28;1366;-69
2023/12/19 03:49:34;;;;;;;;;;;18.60;62.80;;;;;;5081914;28;1664;-71
2023/12/19 03:52:00;;;;;;;;;;;18.60;62.80;;;;;;5092436;28;1390;-70
2023/12/19 03:54:26;;;;;;;;;;;18.60;62.90;;;;;;5058991;28;1468;-69
2023/12/19 03:56:53;;;;;;;;;;;18.60;62.80;;;;;;5059549;28;1348;-69
2023/12/19 03:59:18;;;;;;;;;;;18.60;62.90;;;;;;5064560;28;1961;-70
2023/12/19 04:01:44;;;;;;;;;;;18.60;62.90;;;;;;5091307;28;1517;-70
2023/12/19 04:04:10;;;;;;;;;;;18.60;62.90;;;;;;5061551;28;1386;-69
2023/12/19 04:06:38;;;;;;;;;;;18.60;62.90;;;;;;5059278;28;1495;-69
2023/12/19 04:09:04;;;;;;;;;;;18.60;62.90;;;;;;5058885;28;1385;-70
2023/12/19 04:11:29;;;;;;;;;;;18.60;62.90;;;;;;5061943;28;1492;-71
2023/12/19 04:13:55;;;;;;;;;;;18.60;62.90;;;;;;5092147;28;1268;-69
2023/12/19 04:16:20;;;;;;;;;;;18.60;62.90;;;;;;5060591;28;1320;-69
2023/12/19 04:18:45;;;;;;;;;;;18.60;62.90;;;;;;5059880;28;1973;-69
2023/12/19 04:21:11;;;;;;;;;;;18.60;62.90;;;;;;5062611;28;1395;-68
2023/12/19 04:23:36;;;;;;;;;;;18.60;62.90;;;;;;5060408;28;1364;-68
2023/12/19 04:26:02;;;;;;;;;;;18.60;62.90;;;;;;5059800;28;1440;-68
2023/12/19 04:28:28;;;;;;;;;;;18.60;62.90;;;;;;5093909;28;1097;-68
2023/12/19 04:30:53;;;;;;;;;;;18.60;63.00;;;;;;5071014;28;1188;-68
2023/12/19 04:33:18;;;;;;;;;;;18.60;63.00;;;;;;5067613;28;864;-69
2023/12/19 04:35:44;;;;;;;;;;;18.60;63.00;;;;;;5070513;28;879;-68
2023/12/19 04:38:09;;;;;;;;;;;18.60;63.00;;;;;;5069479;28;1121;-68
2023/12/19 04:40:35;;;;;;;;;;;18.60;63.00;;;;;;5068420;28;1918;-69
2023/12/19 04:43:00;;;;;;;;;;;18.60;63.00;;;;;;5067387;28;807;-69
2023/12/19 04:45:26;;;;;;;;;;;18.60;63.00;;;;;;5066119;28;981;-70
2023/12/19 04:47:51;;;;;;;;;;;18.60;63.00;;;;;;5058568;28;1613;-70
2023/12/19 04:50:17;;;;;;;;;;;18.60;63.00;;;;;;5060707;28;1682;-70
2023/12/19 04:52:42;;;;;;;;;;;18.60;63.00;;;;;;5059926;28;1349;-70
2023/12/19 04:55:08;;;;;;;;;;;18.60;63.00;;;;;;5057286;28;1355;-70
2023/12/19 04:57:33;;;;;;;;;;;18.60;63.10;;;;;;5060466;28;1373;-70
2023/12/19 04:59:59;;;;;;;;;;;18.60;63.00;;;;;;5061278;28;1910;-70
2023/12/19 05:02:24;;;;;;;;;;;18.60;63.10;;;;;;5060092;28;1339;-70
2023/12/19 05:04:50;;;;;;;;;;;18.60;63.00;;;;;;5063969;28;1240;-70
2023/12/19 05:07:15;;;;;;;;;;;18.60;63.10;;;;;;5062104;28;1512;-70
2023/12/19 05:09:41;;;;;;;;;;;18.60;63.00;;;;;;5060376;28;1525;-70
2023/12/19 05:12:07;;;;;;;;;;;18.60;62.90;;;;;;5058506;28;1404;-70
2023/12/19 05:14:32;;;;;;;;;;;18.60;62.90;;;;;;5060697;28;1477;-70
2023/12/19 05:16:59;;;;;;;;;;;18.70;62.90;;;;;;5061647;28;1498;-70
2023/12/19 05:19:25;;;;;;;;;;;18.80;62.90;;;;;;5058267;28;1906;-70
2023/12/19 05:21:50;;;;;;;;;;;18.90;62.70;;;;;;5061833;28;1213;-68
2023/12/19 05:24:17;;;;;;;;;;;19.00;62.40;;;;;;5064395;28;1124;-70
2023/12/19 05:26:43;;;;;;;;;;;19.20;62.40;;;;;;5064450;28;977;-69
2023/12/19 05:29:08;;;;;;;;;;;19.30;61.70;;;;;;5064708;28;1372;-70
2023/12/19 05:31:34;;;;;;;;;;;19.40;61.40;;;;;;5060527;28;1502;-70
2023/12/19 05:33:59;;;;;;;;;;;19.60;61.10;;;;;;5058336;28;1465;-70
2023/12/19 05:36:25;;;;;;;;;;;19.70;60.70;;;;;;5057327;28;1266;-70
2023/12/19 05:38:50;;;;;;;;;;;19.80;60.40;;;;;;5056981;28;1902;-70
2023/12/19 05:41:16;;;;;;;;;;;19.90;60.10;;;;;;5059308;28;1260;-70
2023/12/19 05:43:42;;;;;;;;;;;20.00;59.80;;;;;;5056900;28;1264;-69
2023/12/19 05:46:07;;;;;;;;;;;20.10;59.60;;;;;;5059491;28;1314;-70
2023/12/19 05:48:33;;;;;;;;;;;20.20;59.40;;;;;;5091016;28;1419;-70
2023/12/19 05:50:59;;;;;;;;;;;20.30;59.20;;;;;;5057340;28;1280;-70
2023/12/19 05:53:25;;;;;;;;;;;20.40;59.00;;;;;;5060993;28;1261;-70
2023/12/19 05:55:51;;;;;;;;;;;20.50;58.80;;;;;;5059599;28;1359;-70
2023/12/19 05:58:16;;;;;;;;;;;20.50;58.60;;;;;;5061693;28;1964;-70
2023/12/19 06:00:44;;;;;;;;;;;20.60;58.50;;;;;;5093133;28;1381;-71
2023/12/19 06:03:10;;;;;;;;;;;20.60;58.30;;;;;;5057130;28;1450;-71
2023/12/19 06:05:38;;;;;;;;;;;20.70;58.30;;;;;;5061164;28;1463;-70
2023/12/19 06:08:05;;;;;;;;;;;20.70;58.10;;;;;;5088174;28;1929;-70
2023/12/19 06:10:31;;;;;;;;;;;20.80;58.10;;;;;;5058821;28;2419;-70
2023/12/19 06:12:56;;;;;;;;;;;20.80;57.90;;;;;;5058638;28;1237;-70
2023/12/19 06:15:21;;;;;;;;;;;20.90;57.90;;;;;;5065103;28;1497;-72
2023/12/19 06:17:47;;;;;;;;;;;20.90;57.80;;;;;;5090231;28;1116;-73
2023/12/19 06:20:12;;;;;;;;;;;20.90;57.80;;;;;;5057934;28;1971;-73
2023/12/19 06:22:38;;;;;;;;;;;21.00;57.80;;;;;;5057728;28;1384;-69
2023/12/19 06:25:04;;;;;;;;;;;21.00;57.70;;;;;;5059317;28;1405;-71
2023/12/19 06:27:29;;;;;;;;;;;21.00;57.60;;;;;;5057976;28;1182;-68
2023/12/19 06:29:55;;;;;;;;;;;21.00;57.50;;;;;;5058072;28;1296;-73
2023/12/19 06:32:20;;;;;;;;;;;21.00;57.50;;;;;;5043300;28;1244;-71
2023/12/19 06:34:46;;;;;;;;;;;21.10;57.60;;;;;;5057608;28;1258;-71
2023/12/19 06:37:11;;;;;;;;;;;21.10;57.50;;;;;;5092421;28;1154;-71
2023/12/19 06:39:37;;;;;;;;;;;21.10;57.50;;;;;;5092127;28;1934;-72
2023/12/19 06:42:02;;;;;;;;;;;21.10;57.40;;;;;;5092677;28;1442;-71
2023/12/19 06:44:28;;;;;;;;;;;21.10;57.40;;;;;;5059574;28;1114;-71
2023/12/19 06:46:53;;;;;;;;;;;21.10;57.40;;;;;;5057235;28;1130;-72
2023/12/19 06:49:21;;;;;;;;;;;21.20;57.50;;;;;;5056569;28;1264;-70
2023/12/19 06:51:47;;;;;;;;;;;21.10;57.40;;;;;;5059348;28;1346;-70
2023/12/19 06:54:13;;;;;;;;;;;21.20;57.60;;;;;;5055101;28;1282;-71
2023/12/19 06:56:39;;;;;;;;;;;21.10;57.40;;;;;;5090294;28;1338;-70
2023/12/19 06:59:05;;;;;;;;;;;21.10;57.50;;;;;;5057077;28;1965;-70
2023/12/19 07:01:31;;;;;;;;;;;21.10;57.50;;;;;;5061121;28;1507;-70
2023/12/19 07:03:56;;;;;;;;;;;21.10;57.50;;;;;;5056526;28;1510;-70
2023/12/19 07:06:22;;;;;;;;;;;21.10;57.60;;;;;;5061678;28;1169;-70
2023/12/19 07:08:47;;;;;;;;;;;21.00;56.50;;;;;;5057249;28;1322;-70
2023/12/19 07:11:14;;;;;;;;;;;21.00;55.50;;;;;;5059098;28;1457;-71
2023/12/19 07:13:39;;;;;;;;;;;20.90;55.50;;;;;;5090105;28;1602;-69
2023/12/19 07:16:06;;;;;;;;;;;20.90;55.80;;;;;;5058386;28;1190;-70
2023/12/19 07:18:31;;;;;;;;;;;20.90;56.00;;;;;;5059092;28;2311;-71
2023/12/19 07:20:57;;;;;;;;;;;20.90;56.20;;;;;;5054745;28;1609;-69
2023/12/19 07:23:22;;;;;;;;;;;20.90;56.40;;;;;;5056715;28;1360;-71
2023/12/19 07:25:48;;;;;;;;;;;20.80;56.50;;;;;;5061958;28;1267;-71
2023/12/19 07:28:15;;;;;;;;;;;20.80;56.70;;;;;;5065105;28;1523;-71
2023/12/19 07:30:40;;;;;;;;;;;20.80;56.80;;;;;;5064907;28;1373;-70
2023/12/19 07:33:06;;;;;;;;;;;20.80;56.90;;;;;;5064814;28;1417;-69
2023/12/19 07:35:31;;;;;;;;;;;20.70;57.00;;;;;;5064090;28;1525;-70
2023/12/19 07:37:57;;;;;;;;;;;20.70;57.10;;;;;;5064391;28;1433;-71
2023/12/19 07:40:22;;;;;;;;;;;20.70;57.20;;;;;;5063028;28;1971;-69
2023/12/19 07:42:47;;;;;;;;;;;20.70;57.30;;;;;;5064194;28;1303;-68
2023/12/19 07:45:13;;;;;;;;;;;20.70;57.40;;;;;;5058668;28;1527;-68
2023/12/19 07:47:39;;;;;;;;;;;20.70;57.50;;;;;;5065888;28;1296;-69
2023/12/19 07:50:05;;;;;;;;;;;20.70;57.60;;;;;;5064154;28;1413;-69
2023/12/19 07:52:30;;;;;;;;;;;20.60;57.60;;;;;;5066136;28;1384;-68
2023/12/19 07:54:56;;;;;;;;;;;20.60;57.70;;;;;;5064335;28;1265;-69
2023/12/19 07:57:21;;;;;;;;;;;20.60;57.80;;;;;;5062254;28;1507;-69
2023/12/19 07:59:48;;;;;;;;;;;20.50;57.90;;;;;;5065319;28;1898;-69
2023/12/19 08:02:13;;;;;;;;;;;20.60;58.00;;;;;;5063102;28;1390;-69
2023/12/19 08:04:39;;;;;;;;;;;20.50;58.00;;;;;;5063371;28;1265;-69
2023/12/19 08:07:05;;;;;;;;;;;20.50;58.10;;;;;;5063638;28;1487;-70
2023/12/19 08:09:30;;;;;;;;;;;20.50;58.20;;;;;;5063045;28;1427;-69
2023/12/19 08:11:57;;;;;;;;;;;20.50;58.20;;;;;;5062186;28;2024;-69
2023/12/19 08:14:22;;;;;;;;;;;20.40;58.30;;;;;;5063491;28;1513;-70
2023/12/19 08:16:48;;;;;;;;;;;20.40;58.40;;;;;;5097450;28;1275;-69
2023/12/19 08:19:15;;;;;;;;;;;20.40;58.40;;;;;;5063698;28;1923;-70
2023/12/19 08:21:47;;;;;;;;;;;20.40;58.80;;;;;;5064749;28;1291;-70
2023/12/19 08:24:13;;;;;;;;;;;20.40;59.50;;;;;;5064577;28;1270;-70
2023/12/19 08:26:38;;;;;;;;;;;20.40;59.70;;;;;;5061580;28;1357;-71
2023/12/19 08:29:04;;;;;;;;;;;20.40;60.00;;;;;;5066009;28;1362;-71
2023/12/19 08:31:29;;;;;;;;;;;20.40;60.50;;;;;;5065192;28;1276;-70
2023/12/19 08:33:55;;;;;;;;;;;20.40;60.50;;;;;;5063816;28;1977;-70
2023/12/19 08:36:20;;;;;;;;;;;20.40;60.90;;;;;;5062152;28;1366;-70
2023/12/19 08:38:45;;;;;;;;;;;20.30;60.80;;;;;;5058431;28;1902;-70
2023/12/19 08:41:11;;;;;;;;;;;20.40;61.00;;;;;;5061757;28;1746;-69
2023/12/19 08:43:37;;;;;;;;;;;20.40;61.10;;;;;;5061717;28;1371;-70
2023/12/19 08:46:02;;;;;;;;;;;20.40;61.20;;;;;;5059679;28;1422;-70
2023/12/19 08:48:28;;;;;;;;;;;20.40;61.20;;;;;;5062010;28;1358;-70
2023/12/19 08:50:53;;;;;;;;;;;20.40;61.20;;;;;;5058904;28;1260;-72
2023/12/19 08:53:19;;;;;;;;;;;20.40;61.40;;;;;;5051903;28;1498;-72
2023/12/19 08:55:46;;;;;;;;;;;20.40;61.30;;;;;;5059672;28;1532;-71
2023/12/19 08:58:12;;;;;;;;;;;20.40;61.40;;;;;;5088868;28;1497;-71
2023/12/19 09:00:37;;;;;;;;;;;20.40;61.40;;;;;;5060255;28;1902;-69
2023/12/19 09:03:05;;;;;;;;;;;20.40;61.50;;;;;;5058166;28;1505;-70
2023/12/19 09:05:30;;;;;;;;;;;20.40;61.60;;;;;;5059917;28;1558;-70
2023/12/19 09:07:56;;;;;;;;;;;20.40;61.90;;;;;;5092338;28;1372;-70
2023/12/19 09:10:21;;;;;;;;;;;20.40;62.00;;;;;;5061077;28;1514;-70
2023/12/19 09:12:47;;;;;;;;;;;20.40;62.10;;;;;;5061287;28;1590;-72
2023/12/19 09:15:12;;;;;;;;;;;20.40;62.40;;;;;;5060978;28;1421;-69
2023/12/19 09:17:38;;;;;;;;;;;20.40;62.50;;;;;;5058952;28;1321;-69
2023/12/19 09:20:05;;;;;;;;;;;20.40;62.60;;;;;;5092254;28;1902;-70
2023/12/19 09:22:30;;;;;;;;;;;20.30;62.80;;;;;;5061794;28;1460;-70
2023/12/19 09:24:56;;;;;;;;;;;20.30;62.90;;;;;;5059703;28;1291;-69
2023/12/19 09:27:21;;;;;;;;;;;20.30;63.00;;;;;;5057487;28;1733;-70
2023/12/19 09:29:47;;;;;;;;;;;20.40;63.20;;;;;;5058061;28;1328;-70
2023/12/19 09:32:15;;;;;;;;;;;20.40;63.60;;;;;;5057025;28;1304;-70
2023/12/19 09:34:40;;;;;;;;;;;20.40;63.90;;;;;;5059909;28;1335;-70
2023/12/19 09:37:05;;;;;;;;;;;20.40;63.90;;;;;;5059704;28;1212;-70
2023/12/19 09:39:31;;;;;;;;;;;20.30;63.90;;;;;;5060870;28;1957;-70
2023/12/19 09:41:58;;;;;;;;;;;20.40;64.00;;;;;;5059247;28;1188;-70
2023/12/19 09:44:25;;;;;;;;;;;20.40;63.90;;;;;;5058458;28;1393;-70
2023/12/19 09:46:50;;;;;;;;;;;20.40;63.70;;;;;;5059358;28;1619;-70
2023/12/19 09:49:18;;;;;;;;;;;20.40;63.90;;;;;;5043456;28;2164;-70
2023/12/19 09:51:43;;;;;;;;;;;20.40;63.90;;;;;;5057673;28;1513;-70
2023/12/19 09:54:09;;;;;;;;;;;20.40;64.10;;;;;;5056076;28;1401;-69
2023/12/19 09:56:34;;;;;;;;;;;20.40;64.00;;;;;;5093380;28;1382;-70
2023/12/19 09:59:00;;;;;;;;;;;20.40;63.90;;;;;;5056274;28;1905;-72
2023/12/19 10:01:25;;;;;;;;;;;20.40;63.80;;;;;;5059502;28;1331;-70
2023/12/19 10:03:55;;;;;;;;;;;20.40;63.80;;;;;;5078054;28;1384;-70
2023/12/19 10:06:24;;;;;;;;;;;20.40;63.80;;;;;;5089196;28;1361;-71
2023/12/19 10:08:50;;;;;;;;;;;20.50;63.60;;;;;;5059816;28;1514;-71
2023/12/19 10:11:21;;;;;;;;;;;20.50;63.60;;;;;;5061308;28;1500;-72
2023/12/19 10:13:47;;;;;;;;;;;20.50;63.60;;;;;;5092527;28;1266;-74
2023/12/19 10:16:12;;;;;;;;;;;20.50;63.60;;;;;;5057885;28;1730;-72
2023/12/19 10:18:38;;;;;;;;;;;20.50;63.70;;;;;;5056209;28;1994;-74
2023/12/19 10:21:08;;;;;;;;;;;20.50;63.80;;;;;;5054402;28;1253;-74
2023/12/19 10:23:40;;;;;;;;;;;20.50;64.00;;;;;;5089117;28;1692;-75
2023/12/19 10:26:06;;;;;;;;;;;20.40;64.30;;;;;;5057782;28;1304;-75
2023/12/19 10:28:34;;;;;;;;;;;20.50;64.20;;;;;;5057266;28;1430;-75
2023/12/19 10:31:06;;;;;;;;;;;20.50;64.40;;;;;;5056732;28;1428;-72
2023/12/19 10:33:57;;;;;;;;;;;20.60;64.60;;;;;;5057530;28;1311;-74
2023/12/19 10:36:29;;;;;;;;;;;20.60;64.60;;;;;;5053962;28;1478;-74
2023/12/19 10:38:55;;;;;;;;;;;20.60;64.80;;;;;;5056829;28;1972;-74
2023/12/19 10:41:22;;;;;;;;;;;20.60;64.90;;;;;;5056516;28;1711;-74
2023/12/19 10:43:49;;;;;;;;;;;20.50;64.90;;;;;;5093215;28;1559;-75
2023/12/19 10:46:16;;;;;;;;;;;20.50;65.10;;;;;;5056156;28;1991;-73
2023/12/19 10:48:41;;;;;;;;;;;20.60;65.20;;;;;;5061719;28;1722;-72
2023/12/19 10:51:07;;;;;;;;;;;20.60;65.40;;;;;;5094335;28;1358;-72
2023/12/19 10:53:32;;;;;;;;;;;20.60;65.40;;;;;;5099357;28;1018;-72
2023/12/19 10:55:58;;;;;;;;;;;20.60;65.20;;;;;;5093659;28;1497;-72
2023/12/19 10:58:23;;;;;;;;;;;20.60;65.30;;;;;;5090200;28;1707;-70
2023/12/19 11:00:50;;;;;;;;;;;20.60;65.00;;;;;;5057014;28;1906;-70
2023/12/19 11:03:23;;;;;;;;;;;20.60;65.00;;;;;;5057334;28;1827;-73
2023/12/19 11:05:50;;;;;;;;;;;20.60;65.00;;;;;;5071983;28;1387;-73
2023/12/19 11:08:17;;;;;;;;;;;20.60;65.00;;;;;;5056839;28;1362;-74
2023/12/19 11:10:59;;;;;;;;;;;20.60;65.00;;;;;;5058120;28;1511;-73
2023/12/19 11:13:25;;;;;;;;;;;20.60;65.10;;;;;;5077077;28;1509;-71
2023/12/19 11:15:52;;;;;;;;;;;20.60;65.00;;;;;;5095903;28;1330;-70
2023/12/19 11:18:25;;;;;;;;;;;20.50;65.20;;;;;;5056178;28;1153;-70
2023/12/19 11:21:05;;;;;;;;;;;20.50;65.10;;;;;;5058044;28;1894;-71
2023/12/19 11:23:38;;;;;;;;;;;20.50;65.60;;;;;;5089499;28;1235;-71
2023/12/19 11:26:15;;;;;;;;;;;20.50;65.70;;;;;;5059177;28;1344;-71
2023/12/19 11:28:41;;;;;;;;;;;20.50;65.80;;;;;;5058704;28;989;-70
2023/12/19 11:31:25;;;;;;;;;;;20.50;65.80;;;;;;5058177;28;1308;-74
2023/12/19 11:33:51;;;;;;;;;;;20.50;66.10;;;;;;5056972;28;1235;-73
2023/12/19 11:36:17;;;;;;;;;;;20.40;66.30;;;;;;5058059;28;1315;-73
2023/12/19 11:38:43;;;;;;;;;;;20.40;66.30;;;;;;5057229;28;1928;-74
2023/12/19 11:41:08;;;;;;;;;;;20.40;66.60;;;;;;5056538;28;1423;-73
2023/12/19 11:43:36;;;;;;;;;;;20.40;66.70;;;;;;5059976;28;1537;-73
2023/12/19 11:46:06;;;;;;;;;;;20.40;66.90;;;;;;5056572;28;1194;-74
2023/12/19 11:48:37;;;;;;;;;;;20.40;67.10;;;;;;5057373;28;1312;-73
2023/12/19 11:51:03;;;;;;;;;;;20.40;67.10;;;;;;5088160;28;1337;-74
2023/12/19 11:53:29;;;;;;;;;;;20.40;67.20;;;;;;5059808;28;1286;-73
2023/12/19 11:56:05;;;;;;;;;;;20.40;67.50;;;;;;5055121;28;1020;-72
2023/12/19 11:58:31;;;;;;;;;;;20.40;67.60;;;;;;5059921;28;1973;-73
2023/12/19 12:00:57;;;;;;;;;;;20.40;67.60;;;;;;5078974;28;1257;-73
2023/12/19 12:03:23;;;;;;;;;;;20.30;67.50;;;;;;5058866;28;1500;-73
2023/12/19 12:05:49;;;;;;;;;;;20.40;67.50;;;;;;5057245;28;1435;-73
2023/12/19 12:08:15;;;;;;;;;;;20.30;67.50;;;;;;5057406;28;1561;-72
2023/12/19 12:10:40;;;;;;;;;;;20.30;67.30;;;;;;5091547;28;1299;-73
2023/12/19 12:13:06;;;;;;;;;;;20.30;67.40;;;;;;5058984;28;1289;-74
2023/12/19 12:15:31;;;;;;;;;;;20.30;67.20;;;;;;5063785;28;1827;-73
2023/12/19 12:18:03;;;;;;;;;;;20.30;67.40;;;;;;5060295;28;1233;-71
2023/12/19 12:20:33;;;;;;;;;;;20.30;67.30;;;;;;5093744;28;1906;-71
2023/12/19 12:22:59;;;;;;;;;;;20.30;67.40;;;;;;5059468;28;1474;-74
2023/12/19 12:25:24;;;;;;;;;;;20.30;67.40;;;;;;5091858;28;1278;-73
2023/12/19 12:27:55;;;;;;;;;;;20.30;67.40;;;;;;5093681;28;1137;-74
2023/12/19 12:30:21;;;;;;;;;;;20.30;67.50;;;;;;5057272;28;1950;-74
2023/12/19 12:32:47;;;;;;;;;;;20.30;67.50;;;;;;5061278;28;1692;-74
2023/12/19 12:35:23;;;;;;;;;;;20.30;67.60;;;;;;5057776;28;1444;-74
2023/12/19 12:37:54;;;;;;;;;;;20.30;67.60;;;;;;5060827;28;1452;-75
2023/12/19 12:40:19;;;;;;;;;;;20.30;67.60;;;;;;5060244;28;1945;-74
2023/12/19 12:42:45;;;;;;;;;;;20.30;67.70;;;;;;5047619;28;4415;-73
2023/12/19 12:45:14;;;;;;;;;;;20.30;67.60;;;;;;5061019;28;1653;-72
2023/12/19 12:47:41;;;;;;;;;;;20.30;67.80;;;;;;5061151;28;1415;-72
2023/12/19 12:50:07;;;;;;;;;;;20.30;67.80;;;;;;5059295;28;1524;-72
2023/12/19 12:52:32;;;;;;;;;;;20.30;68.00;;;;;;5061229;28;1625;-71
2023/12/19 12:55:01;;;;;;;;;;;20.30;68.00;;;;;;5061607;28;1182;-72
2023/12/19 12:57:26;;;;;;;;;;;20.30;68.10;;;;;;5061351;28;1868;-70
2023/12/19 12:59:52;;;;;;;;;;;20.30;68.30;;;;;;5091489;28;1973;-71
2023/12/19 13:02:18;;;;;;;;;;;20.30;68.40;;;;;;5059612;28;1607;-68
2023/12/19 13:04:44;;;;;;;;;;;20.30;68.50;;;;;;5061337;28;1520;-70
2023/12/19 13:07:09;;;;;;;;;;;20.30;68.30;;;;;;5063107;28;1276;-69
2023/12/19 13:09:35;;;;;;;;;;;20.20;68.40;;;;;;5062413;28;1394;-69
2023/12/19 13:12:01;;;;;;;;;;;20.20;68.60;;;;;;5059764;28;1838;-68
2023/12/19 13:14:26;;;;;;;;;;;20.30;68.60;;;;;;5060578;28;1961;-71
2023/12/19 13:16:52;;;;;;;;;;;20.30;69.30;;;;;;5092664;28;1328;-69
2023/12/19 13:19:18;;;;;;;;;;;20.30;69.00;;;;;;5056316;28;1981;-69
2023/12/19 13:21:43;;;;;;;;;;;20.30;69.10;;;;;;5093381;28;1389;-69
2023/12/19 13:24:09;;;;;;;;;;;20.20;69.00;;;;;;5057412;28;2277;-70
2023/12/19 13:26:34;;;;;;;;;;;20.20;68.80;;;;;;5091123;28;1294;-69
2023/12/19 13:29:01;;;;;;;;;;;20.20;68.60;;;;;;5089540;28;1362;-70
2023/12/19 13:31:29;;;;;;;;;;;20.20;68.80;;;;;;5093534;28;1741;-71
2023/12/19 13:33:54;;;;;;;;;;;20.20;68.80;;;;;;5056388;28;1482;-72
2023/12/19 13:36:21;;;;;;;;;;;20.20;68.80;;;;;;5091392;28;1433;-71
2023/12/19 13:38:47;;;;;;;;;;;20.20;69.00;;;;;;5056067;28;1977;-70
2023/12/19 13:41:12;;;;;;;;;;;20.20;69.50;;;;;;5058857;28;1291;-71
2023/12/19 13:43:38;;;;;;;;;;;20.20;69.90;;;;;;5054121;28;4440;-71
2023/12/19 13:46:04;;;;;;;;;;;20.20;69.50;;;;;;5061945;28;1446;-71
2023/12/19 13:48:30;;;;;;;;;;;20.20;69.70;;;;;;5057275;28;1380;-71
2023/12/19 13:50:56;;;;;;;;;;;20.20;69.70;;;;;;5057776;28;1712;-72
2023/12/19 13:53:22;;;;;;;;;;;20.20;69.70;;;;;;5059590;28;1574;-72
2023/12/19 13:55:48;;;;;;;;;;;20.20;69.60;;;;;;5057683;28;1286;-71
2023/12/19 13:58:13;;;;;;;;;;;20.20;69.80;;;;;;5092865;28;1086;-70
2023/12/19 14:00:39;;;;;;;;;;;20.20;69.70;;;;;;5059177;28;1992;-70
2023/12/19 14:03:05;;;;;;;;;;;20.20;69.40;;;;;;5057583;28;1313;-72
2023/12/19 14:05:31;;;;;;;;;;;20.20;69.90;;;;;;5057718;28;1489;-72
2023/12/19 14:07:56;;;;;;;;;;;20.20;69.50;;;;;;5093834;28;1279;-73
2023/12/19 14:10:22;;;;;;;;;;;20.20;69.50;;;;;;5055681;28;1590;-73
2023/12/19 14:12:48;;;;;;;;;;;20.20;69.50;;;;;;5058580;28;1489;-73
2023/12/19 14:15:13;;;;;;;;;;;20.20;69.50;;;;;;5056127;28;1266;-73
2023/12/19 14:17:39;;;;;;;;;;;20.20;69.40;;;;;;5057877;28;1281;-73
2023/12/19 14:20:06;;;;;;;;;;;20.20;69.50;;;;;;5055602;28;1914;-74
2023/12/19 14:22:31;;;;;;;;;;;20.10;69.50;;;;;;5056265;28;1539;-73
2023/12/19 14:24:58;;;;;;;;;;;20.10;69.40;;;;;;5092824;28;1519;-73